Terminal Aerodrome Forecast
Issued by NWS Twin Cities, MN

Home | Current Version | Previous Version | Text Only | Print | Product List | Glossary On
Versions: 1 2 3 4 5 6 7 8 9 10 11 12 13 14 15 16
000
FTUS43 KMPX 130527
TAFEAU
TAF
KEAU 130527Z 1306/1406 14006KT P6SM SCT030 BKN060
     FM131000 13006KT P6SM VCSH OVC050
     FM131200 13005KT 4SM -SN OVC015
     FM131500 06005KT 3SM -FZDZSN OVC008
     FM131800 34009KT 4SM -SN OVC015
     FM140000 33005KT P6SM OVC025=

USA.gov is the U.S. government's official web portal to all federal, state and local government web resources and services.